sensor_id;sensor_type;location;lat;lon;timestamp;pressure;altitude;pressure_sealevel;temperature;humidity
71791;BME280;59638;52.126;5.434;2023-04-02T00:07:48;101396.72;;;5.85;100.00
71791;BME280;59638;52.126;5.434;2023-04-02T00:10:36;101388.84;;;5.85;100.00
71791;BME280;59638;52.126;5.434;2023-04-02T00:15:36;101402.16;;;5.82;100.00
71791;BME280;59638;52.126;5.434;2023-04-02T00:18:04;101410.91;;;5.81;100.00
71791;BME280;59638;52.126;5.434;2023-04-02T00:20:34;101411.78;;;5.81;100.00
71791;BME280;59638;52.126;5.434;2023-04-02T00:23:04;101411.78;;;5.81;100.00
71791;BME280;59638;52.126;5.434;2023-04-02T00:25:35;101421.41;;;5.81;100.00
71791;BME280;59638;52.126;5.434;2023-04-02T00:28:03;101419.72;;;5.80;100.00
71791;BME280;59638;52.126;5.434;2023-04-02T00:30:29;101409.25;;;5.80;100.00
71791;BME280;59638;52.126;5.434;2023-04-02T00:32:56;101424.13;;;5.79;100.00
71791;BME280;59638;52.126;5.434;2023-04-02T00:35:27;101422.53;;;5.77;100.00
71791;BME280;59638;52.126;5.434;2023-04-02T00:37:55;101417.19;;;5.78;100.00
71791;BME280;59638;52.126;5.434;2023-04-02T00:40:23;101430.41;;;5.77;100.00
71791;BME280;59638;52.126;5.434;2023-04-02T00:42:53;101445.19;;;5.78;100.00
71791;BME280;59638;52.126;5.434;2023-04-02T00:45:28;101445.19;;;5.78;100.00
71791;BME280;59638;52.126;5.434;2023-04-02T00:47:58;101460.16;;;5.76;100.00
71791;BME280;59638;52.126;5.434;2023-04-02T00:50:30;101454.72;;;5.79;100.00
71791;BME280;59638;52.126;5.434;2023-04-02T00:53:03;101465.56;;;5.72;100.00
71791;BME280;59638;52.126;5.434;2023-04-02T00:55:36;101467.44;;;5.70;100.00
71791;BME280;59638;52.126;5.434;2023-04-02T00:58:15;101471.16;;;5.66;100.00
71791;BME280;59638;52.126;5.434;2023-04-02T01:00:48;101477.34;;;5.65;100.00
71791;BME280;59638;52.126;5.434;2023-04-02T01:08:51;101497.69;;;5.60;100.00
71791;BME280;59638;52.126;5.434;2023-04-02T01:16:56;101506.50;;;5.59;100.00
71791;BME280;59638;52.126;5.434;2023-04-02T01:22:36;101511.94;;;5.56;100.00
71791;BME280;59638;52.126;5.434;2023-04-02T01:25:12;101514.34;;;5.59;100.00
71791;BME280;59638;52.126;5.434;2023-04-02T01:27:58;101522.56;;;5.53;100.00
71791;BME280;59638;52.126;5.434;2023-04-02T01:30:33;101520.88;;;5.52;100.00
71791;BME280;59638;52.126;5.434;2023-04-02T01:33:00;101522.66;;;5.52;100.00
71791;BME280;59638;52.126;5.434;2023-04-02T01:35:30;101529.69;;;5.51;100.00
71791;BME280;59638;52.126;5.434;2023-04-02T01:38:33;101533.22;;;5.50;100.00
71791;BME280;59638;52.126;5.434;2023-04-02T01:41:15;101548.94;;;5.50;100.00
71791;BME280;59638;52.126;5.434;2023-04-02T01:43:57;101546.41;;;5.49;100.00
71791;BME280;59638;52.126;5.434;2023-04-02T01:46:29;101546.41;;;5.49;100.00
71791;BME280;59638;52.126;5.434;2023-04-02T01:49:00;101550.03;;;5.46;100.00
71791;BME280;59638;52.126;5.434;2023-04-02T01:51:31;101555.38;;;5.44;100.00
71791;BME280;59638;52.126;5.434;2023-04-02T01:54:00;101558.09;;;5.43;100.00
71791;BME280;59638;52.126;5.434;2023-04-02T01:56:27;101563.31;;;5.43;100.00
71791;BME280;59638;52.126;5.434;2023-04-02T01:58:56;101569.56;;;5.40;100.00
71791;BME280;59638;52.126;5.434;2023-04-02T02:01:27;101573.28;;;5.36;100.00
71791;BME280;59638;52.126;5.434;2023-04-02T02:03:56;101584.69;;;5.35;100.00
71791;BME280;59638;52.126;5.434;2023-04-02T02:06:23;101592.56;;;5.35;100.00
71791;BME280;59638;52.126;5.434;2023-04-02T02:08:58;101600.47;;;5.34;100.00
71791;BME280;59638;52.126;5.434;2023-04-02T02:11:29;101597.94;;;5.32;100.00
71791;BME280;59638;52.126;5.434;2023-04-02T02:16:25;101607.06;;;5.25;100.00
71791;BME280;59638;52.126;5.434;2023-04-02T02:18:58;101608.09;;;5.23;100.00
71791;BME280;59638;52.126;5.434;2023-04-02T02:24:02;101622.25;;;5.18;100.00
71791;BME280;59638;52.126;5.434;2023-04-02T02:26:32;101619.03;;;5.13;100.00
71791;BME280;59638;52.126;5.434;2023-04-02T02:28:59;101624.47;;;5.10;100.00
71791;BME280;59638;52.126;5.434;2023-04-02T02:31:30;101631.88;;;5.02;100.00
71791;BME280;59638;52.126;5.434;2023-04-02T02:34:05;101634.03;;;4.94;100.00
71791;BME280;59638;52.126;5.434;2023-04-02T02:36:46;101637.25;;;4.83;100.00
71791;BME280;59638;52.126;5.434;2023-04-02T02:39:21;101645.34;;;4.79;100.00
71791;BME280;59638;52.126;5.434;2023-04-02T02:41:56;101642.09;;;4.74;100.00
71791;BME280;59638;52.126;5.434;2023-04-02T02:44:28;101649.34;;;4.69;100.00
71791;BME280;59638;52.126;5.434;2023-04-02T02:47:01;101647.66;;;4.68;100.00
71791;BME280;59638;52.126;5.434;2023-04-02T02:49:34;101659.97;;;4.66;100.00
71791;BME280;59638;52.126;5.434;2023-04-02T02:54:35;101668.75;;;4.64;100.00
71791;BME280;59638;52.126;5.434;2023-04-02T02:57:08;101679.34;;;4.61;100.00
71791;BME280;59638;52.126;5.434;2023-04-02T02:59:36;101688.13;;;4.60;100.00
71791;BME280;59638;52.126;5.434;2023-04-02T03:02:04;101695.03;;;4.61;100.00
71791;BME280;59638;52.126;5.434;2023-04-02T03:04:32;101695.34;;;4.55;100.00
71791;BME280;59638;52.126;5.434;2023-04-02T03:07:03;101699.72;;;4.55;100.00
71791;BME280;59638;52.126;5.434;2023-04-02T03:15:20;101716.44;;;4.52;100.00
71791;BME280;59638;52.126;5.434;2023-04-02T03:18:01;101719.97;;;4.51;100.00
71791;BME280;59638;52.126;5.434;2023-04-02T03:20:45;101718.28;;;4.50;100.00
71791;BME280;59638;52.126;5.434;2023-04-02T03:23:25;101726.19;;;4.49;100.00
71791;BME280;59638;52.126;5.434;2023-04-02T03:26:01;101745.38;;;4.49;100.00
71791;BME280;59638;52.126;5.434;2023-04-02T03:28:33;101743.72;;;4.47;100.00
71791;BME280;59638;52.126;5.434;2023-04-02T03:31:07;101756.88;;;4.45;100.00
71791;BME280;59638;52.126;5.434;2023-04-02T03:33:39;101753.50;;;4.43;100.00
71791;BME280;59638;52.126;5.434;2023-04-02T03:36:18;101770.97;;;4.43;100.00
71791;BME280;59638;52.126;5.434;2023-04-02T03:38:50;101766.63;;;4.42;100.00
71791;BME280;59638;52.126;5.434;2023-04-02T03:41:26;101783.16;;;4.42;100.00
71791;BME280;59638;52.126;5.434;2023-04-02T03:43:57;101775.47;;;4.39;100.00
71791;BME280;59638;52.126;5.434;2023-04-02T03:46:28;101784.34;;;4.36;100.00
71791;BME280;59638;52.126;5.434;2023-04-02T03:48:58;101794.84;;;4.35;100.00
71791;BME280;59638;52.126;5.434;2023-04-02T03:51:33;101794.84;;;4.35;100.00
71791;BME280;59638;52.126;5.434;2023-04-02T03:54:02;101803.53;;;4.35;100.00
71791;BME280;59638;52.126;5.434;2023-04-02T03:56:31;101806.22;;;4.34;100.00
71791;BME280;59638;52.126;5.434;2023-04-02T04:02:09;101817.59;;;4.33;100.00
71791;BME280;59638;52.126;5.434;2023-04-02T04:04:39;101821.06;;;4.33;100.00
71791;BME280;59638;52.126;5.434;2023-04-02T04:07:15;101824.50;;;4.34;100.00
71791;BME280;59638;52.126;5.434;2023-04-02T04:09:45;101832.34;;;4.34;100.00
71791;BME280;59638;52.126;5.434;2023-04-02T04:14:55;101836.06;;;4.30;100.00
71791;BME280;59638;52.126;5.434;2023-04-02T04:22:33;101858.94;;;4.25;100.00
71791;BME280;59638;52.126;5.434;2023-04-02T04:25:02;101864.44;;;4.19;100.00
71791;BME280;59638;52.126;5.434;2023-04-02T04:27:37;101873.50;;;4.12;100.00
71791;BME280;59638;52.126;5.434;2023-04-02T04:30:24;101877.16;;;4.07;100.00
71791;BME280;59638;52.126;5.434;2023-04-02T04:32:57;101884.34;;;4.02;100.00
71791;BME280;59638;52.126;5.434;2023-04-02T04:35:33;101888.03;;;3.98;100.00
71791;BME280;59638;52.126;5.434;2023-04-02T04:38:11;101905.00;;;3.90;100.00
71791;BME280;59638;52.126;5.434;2023-04-02T04:40:53;101899.97;;;3.85;100.00
71791;BME280;59638;52.126;5.434;2023-04-02T04:43:31;101904.53;;;3.80;100.00
71791;BME280;59638;52.126;5.434;2023-04-02T04:46:05;101908.06;;;3.79;100.00
71791;BME280;59638;52.126;5.434;2023-04-02T04:51:19;101925.03;;;3.69;100.00
71791;BME280;59638;52.126;5.434;2023-04-02T04:53:50;101920.72;;;3.68;100.00
71791;BME280;59638;52.126;5.434;2023-04-02T04:56:23;101939.94;;;3.67;100.00
71791;BME280;59638;52.126;5.434;2023-04-02T04:58:56;101941.63;;;3.68;100.00
71791;BME280;59638;52.126;5.434;2023-04-02T05:04:21;101950.38;;;3.67;100.00
71791;BME280;59638;52.126;5.434;2023-04-02T05:07:12;101960.38;;;3.57;100.00
71791;BME280;59638;52.126;5.434;2023-04-02T05:09:47;101966.97;;;3.45;100.00
71791;BME280;59638;52.126;5.434;2023-04-02T05:12:36;101983.81;;;3.37;100.00
71791;BME280;59638;52.126;5.434;2023-04-02T05:15:32;101979.19;;;3.23;100.00
71791;BME280;59638;52.126;5.434;2023-04-02T05:20:50;102000.00;;;3.03;100.00
71791;BME280;59638;52.126;5.434;2023-04-02T05:23:34;102002.31;;;2.88;100.00
71791;BME280;59638;52.126;5.434;2023-04-02T05:26:06;102012.06;;;2.83;100.00
71791;BME280;59638;52.126;5.434;2023-04-02T05:28:38;102010.38;;;2.82;100.00
71791;BME280;59638;52.126;5.434;2023-04-02T05:31:18;102025.47;;;2.74;100.00
71791;BME280;59638;52.126;5.434;2023-04-02T05:33:47;102029.09;;;2.70;100.00
71791;BME280;59638;52.126;5.434;2023-04-02T05:36:26;102030.19;;;2.64;100.00
71791;BME280;59638;52.126;5.434;2023-04-02T05:38:56;102047.00;;;2.56;100.00
71791;BME280;59638;52.126;5.434;2023-04-02T05:41:28;102044.53;;;2.53;100.00
71791;BME280;59638;52.126;5.434;2023-04-02T05:44:26;102047.34;;;2.47;100.00
71791;BME280;59638;52.126;5.434;2023-04-02T05:46:59;102053.63;;;2.41;100.00
71791;BME280;59638;52.126;5.434;2023-04-02T05:49:41;102055.47;;;2.37;100.00
71791;BME280;59638;52.126;5.434;2023-04-02T05:52:16;102073.84;;;2.34;100.00
71791;BME280;59638;52.126;5.434;2023-04-02T05:54:49;102072.03;;;2.36;100.00
71791;BME280;59638;52.126;5.434;2023-04-02T05:57:30;102081.50;;;2.39;100.00
71791;BME280;59638;52.126;5.434;2023-04-02T06:00:17;102091.09;;;2.38;100.00
71791;BME280;59638;52.126;5.434;2023-04-02T06:02:55;102097.44;;;2.31;100.00
71791;BME280;59638;52.126;5.434;2023-04-02T06:05:31;102102.00;;;2.25;100.00
71791;BME280;59638;52.126;5.434;2023-04-02T06:08:07;102107.25;;;2.23;100.00
71791;BME280;59638;52.126;5.434;2023-04-02T06:11:07;102110.75;;;2.22;100.00
71791;BME280;59638;52.126;5.434;2023-04-02T06:13:31;102128.84;;;2.27;100.00
71791;BME280;59638;52.126;5.434;2023-04-02T06:15:57;102129.69;;;2.27;100.00
71791;BME280;59638;52.126;5.434;2023-04-02T06:18:26;102148.72;;;2.29;100.00
71791;BME280;59638;52.126;5.434;2023-04-02T06:20:54;102158.19;;;2.32;100.00
71791;BME280;59638;52.126;5.434;2023-04-02T06:23:29;102155.41;;;2.36;100.00
71791;BME280;59638;52.126;5.434;2023-04-02T06:28:37;102164.72;;;2.43;100.00
71791;BME280;59638;52.126;5.434;2023-04-02T06:31:11;102170.84;;;2.42;100.00
71791;BME280;59638;52.126;5.434;2023-04-02T06:33:42;102177.81;;;2.42;100.00
71791;BME280;59638;52.126;5.434;2023-04-02T06:36:08;102179.56;;;2.41;100.00
71791;BME280;59638;52.126;5.434;2023-04-02T06:38:38;102188.88;;;2.49;100.00
71791;BME280;59638;52.126;5.434;2023-04-02T06:41:13;102186.13;;;2.53;100.00
71791;BME280;59638;52.126;5.434;2023-04-02T06:43:51;102200.78;;;2.56;100.00
71791;BME280;59638;52.126;5.434;2023-04-02T06:46:30;102194.00;;;2.52;100.00
71791;BME280;59638;52.126;5.434;2023-04-02T06:49:12;102206.06;;;2.54;100.00
71791;BME280;59638;52.126;5.434;2023-04-02T06:51:43;102200.50;;;2.65;100.00
71791;BME280;59638;52.126;5.434;2023-04-02T06:54:13;102209.78;;;2.72;100.00
71791;BME280;59638;52.126;5.434;2023-04-02T06:56:44;102213.97;;;2.76;100.00
71791;BME280;59638;52.126;5.434;2023-04-02T06:59:13;102215.53;;;2.82;100.00
71791;BME280;59638;52.126;5.434;2023-04-02T07:01:46;102221.91;;;2.73;100.00
71791;BME280;59638;52.126;5.434;2023-04-02T07:04:14;102227.00;;;2.76;100.00
71791;BME280;59638;52.126;5.434;2023-04-02T07:06:41;102237.44;;;2.76;100.00
71791;BME280;59638;52.126;5.434;2023-04-02T07:09:07;102242.78;;;2.73;100.00
71791;BME280;59638;52.126;5.434;2023-04-02T07:11:34;102256.59;;;2.75;100.00
71791;BME280;59638;52.126;5.434;2023-04-02T07:14:00;102266.88;;;2.80;100.00
71791;BME280;59638;52.126;5.434;2023-04-02T07:16:29;102259.91;;;2.80;100.00
71791;BME280;59638;52.126;5.434;2023-04-02T07:18:57;102273.00;;;2.79;100.00
71791;BME280;59638;52.126;5.434;2023-04-02T07:21:28;102275.56;;;2.80;100.00
71791;BME280;59638;52.126;5.434;2023-04-02T07:23:55;102281.47;;;2.85;100.00
71791;BME280;59638;52.126;5.434;2023-04-02T07:26:23;102277.03;;;2.87;100.00
71791;BME280;59638;52.126;5.434;2023-04-02T07:28:50;102284.59;;;2.95;100.00
71791;BME280;59638;52.126;5.434;2023-04-02T07:31:22;102294.50;;;2.85;100.00
71791;BME280;59638;52.126;5.434;2023-04-02T07:33:50;102302.47;;;2.81;100.00
71791;BME280;59638;52.126;5.434;2023-04-02T07:36:20;102318.13;;;2.81;100.00
71791;BME280;59638;52.126;5.434;2023-04-02T07:38:47;102316.50;;;2.77;100.00
71791;BME280;59638;52.126;5.434;2023-04-02T07:41:14;102313.72;;;2.83;100.00
71791;BME280;59638;52.126;5.434;2023-04-02T07:43:41;102317.81;;;2.90;100.00
71791;BME280;59638;52.126;5.434;2023-04-02T07:46:08;102318.44;;;2.96;100.00
71791;BME280;59638;52.126;5.434;2023-04-02T07:48:35;102324.19;;;2.81;100.00
71791;BME280;59638;52.126;5.434;2023-04-02T07:51:02;102325.75;;;2.87;100.00
71791;BME280;59638;52.126;5.434;2023-04-02T07:53:34;102332.53;;;2.92;100.00
71791;BME280;59638;52.126;5.434;2023-04-02T07:56:03;102330.19;;;2.83;100.00
71791;BME280;59638;52.126;5.434;2023-04-02T07:58:31;102331.09;;;2.82;100.00
71791;BME280;59638;52.126;5.434;2023-04-02T08:00:59;102336.31;;;2.82;100.00
71791;BME280;59638;52.126;5.434;2023-04-02T08:03:26;102328.34;;;2.87;100.00
71791;BME280;59638;52.126;5.434;2023-04-02T08:05:55;102346.16;;;2.74;100.00
71791;BME280;59638;52.126;5.434;2023-04-02T08:08:23;102344.34;;;2.76;100.00
71791;BME280;59638;52.126;5.434;2023-04-02T08:10:50;102350.91;;;2.88;100.00
71791;BME280;59638;52.126;5.434;2023-04-02T08:13:17;102351.69;;;2.91;100.00
71791;BME280;59638;52.126;5.434;2023-04-02T08:15:44;102366.91;;;3.04;100.00
71791;BME280;59638;52.126;5.434;2023-04-02T08:18:11;102362.97;;;3.17;100.00
71791;BME280;59638;52.126;5.434;2023-04-02T08:20:37;102364.47;;;2.99;100.00
71791;BME280;59638;52.126;5.434;2023-04-02T08:23:12;102367.91;;;2.99;100.00
71791;BME280;59638;52.126;5.434;2023-04-02T08:25:40;102379.25;;;2.98;100.00
71791;BME280;59638;52.126;5.434;2023-04-02T08:28:07;102372.22;;;3.00;100.00
71791;BME280;59638;52.126;5.434;2023-04-02T08:30:33;102380.56;;;3.12;100.00
71791;BME280;59638;52.126;5.434;2023-04-02T08:33:00;102396.09;;;3.15;100.00
71791;BME280;59638;52.126;5.434;2023-04-02T08:35:26;102390.34;;;3.30;100.00
71791;BME280;59638;52.126;5.434;2023-04-02T08:37:52;102398.13;;;3.32;100.00
71791;BME280;59638;52.126;5.434;2023-04-02T08:40:26;102406.91;;;3.29;100.00
71791;BME280;59638;52.126;5.434;2023-04-02T08:43:00;102404.09;;;3.35;100.00
71791;BME280;59638;52.126;5.434;2023-04-02T08:45:46;102406.44;;;3.43;100.00
71791;BME280;59638;52.126;5.434;2023-04-02T08:48:14;102414.44;;;3.63;100.00
71791;BME280;59638;52.126;5.434;2023-04-02T08:50:43;102426.69;;;3.61;100.00
71791;BME280;59638;52.126;5.434;2023-04-02T08:53:17;102431.06;;;3.61;100.00
71791;BME280;59638;52.126;5.434;2023-04-02T08:58:48;102442.25;;;3.39;100.00
71791;BME280;59638;52.126;5.434;2023-04-02T09:01:26;102452.09;;;3.31;100.00
71791;BME280;59638;52.126;5.434;2023-04-02T09:04:04;102451.66;;;3.18;100.00
71791;BME280;59638;52.126;5.434;2023-04-02T09:06:32;102450.88;;;3.41;100.00
71791;BME280;59638;52.126;5.434;2023-04-02T09:08:59;102457.25;;;3.33;100.00
71791;BME280;59638;52.126;5.434;2023-04-02T09:11:33;102451.25;;;3.31;100.00
71791;BME280;59638;52.126;5.434;2023-04-02T09:14:04;102465.16;;;3.30;100.00
71791;BME280;59638;52.126;5.434;2023-04-02T09:16:39;102463.66;;;3.49;100.00
71791;BME280;59638;52.126;5.434;2023-04-02T09:19:25;102467.50;;;3.64;100.00
71791;BME280;59638;52.126;5.434;2023-04-02T09:24:32;102477.22;;;4.32;100.00
71791;BME280;59638;52.126;5.434;2023-04-02T09:26:58;102481.19;;;4.42;100.00
71791;BME280;59638;52.126;5.434;2023-04-02T09:29:37;102488.94;;;4.45;100.00
71791;BME280;59638;52.126;5.434;2023-04-02T09:32:24;102490.53;;;4.49;100.00
71791;BME280;59638;52.126;5.434;2023-04-02T09:38:18;102502.47;;;5.00;100.00
71791;BME280;59638;52.126;5.434;2023-04-02T09:43:23;102505.63;;;5.08;100.00
71791;BME280;59638;52.126;5.434;2023-04-02T09:46:03;102496.81;;;7.60;100.00
71791;BME280;59638;52.126;5.434;2023-04-02T09:48:36;102487.34;;;10.36;92.22
71791;BME280;59638;52.126;5.434;2023-04-02T09:51:17;102481.63;;;11.25;86.65
71791;BME280;59638;52.126;5.434;2023-04-02T09:53:46;102472.22;;;12.85;81.34
71791;BME280;59638;52.126;5.434;2023-04-02T09:56:22;102474.00;;;13.21;76.41
71791;BME280;59638;52.126;5.434;2023-04-02T09:59:13;102482.94;;;12.83;78.41
71791;BME280;59638;52.126;5.434;2023-04-02T10:01:43;102498.63;;;11.60;76.97
71791;BME280;59638;52.126;5.434;2023-04-02T10:06:58;102507.91;;;12.68;73.33
71791;BME280;59638;52.126;5.434;2023-04-02T10:09:36;102506.94;;;11.94;78.89
71791;BME280;59638;52.126;5.434;2023-04-02T10:12:11;102503.50;;;11.66;81.34
71791;BME280;59638;52.126;5.434;2023-04-02T10:14:41;102515.06;;;12.78;77.96
71791;BME280;59638;52.126;5.434;2023-04-02T10:17:28;102507.94;;;13.51;70.58
71791;BME280;59638;52.126;5.434;2023-04-02T10:20:04;102521.50;;;13.11;68.20
71791;BME280;59638;52.126;5.434;2023-04-02T10:22:36;102513.84;;;13.43;71.83
71791;BME280;59638;52.126;5.434;2023-04-02T10:25:15;102520.19;;;13.29;71.60
71791;BME280;59638;52.126;5.434;2023-04-02T10:27:56;102508.06;;;13.96;71.88
71791;BME280;59638;52.126;5.434;2023-04-02T10:33:20;102526.84;;;12.74;66.50
71791;BME280;59638;52.126;5.434;2023-04-02T10:36:07;102520.59;;;14.05;65.77
71791;BME280;59638;52.126;5.434;2023-04-02T10:38:50;102527.81;;;13.92;72.53
71791;BME280;59638;52.126;5.434;2023-04-02T10:41:33;102530.41;;;13.10;71.37
71791;BME280;59638;52.126;5.434;2023-04-02T10:44:07;102533.44;;;13.29;66.09
71791;BME280;59638;52.126;5.434;2023-04-02T10:46:57;102529.28;;;13.96;65.01
71791;BME280;59638;52.126;5.434;2023-04-02T10:57:04;102535.69;;;13.93;67.05
71791;BME280;59638;52.126;5.434;2023-04-02T10:59:34;102538.31;;;12.99;63.89
71791;BME280;59638;52.126;5.434;2023-04-02T11:02:26;102537.66;;;13.08;64.54
71791;BME280;59638;52.126;5.434;2023-04-02T11:04:57;102536.16;;;12.67;62.24
71791;BME280;59638;52.126;5.434;2023-04-02T11:07:30;102548.19;;;12.97;59.79
71791;BME280;59638;52.126;5.434;2023-04-02T11:09:58;102549.59;;;12.90;61.30
71791;BME280;59638;52.126;5.434;2023-04-02T11:15:18;102563.91;;;13.48;62.49
71791;BME280;59638;52.126;5.434;2023-04-02T11:17:46;102560.63;;;12.84;55.35
71791;BME280;59638;52.126;5.434;2023-04-02T11:23:17;102557.53;;;12.90;61.72
71791;BME280;59638;52.126;5.434;2023-04-02T11:25:45;102557.47;;;13.74;59.35
71791;BME280;59638;52.126;5.434;2023-04-02T11:28:24;102568.59;;;12.84;55.61
71791;BME280;59638;52.126;5.434;2023-04-02T11:30:52;102569.84;;;12.03;59.96
71791;BME280;59638;52.126;5.434;2023-04-02T11:39:10;102583.25;;;13.61;60.42
71791;BME280;59638;52.126;5.434;2023-04-02T11:44:22;102588.06;;;13.19;61.91
71791;BME280;59638;52.126;5.434;2023-04-02T11:46:49;102602.50;;;13.52;57.32
71791;BME280;59638;52.126;5.434;2023-04-02T11:49:39;102592.38;;;13.09;61.23
71791;BME280;59638;52.126;5.434;2023-04-02T11:52:19;102601.63;;;12.29;59.89
71791;BME280;59638;52.126;5.434;2023-04-02T11:54:55;102600.09;;;11.99;59.35
71791;BME280;59638;52.126;5.434;2023-04-02T11:57:45;102591.44;;;12.48;62.88
71791;BME280;59638;52.126;5.434;2023-04-02T12:02:59;102598.00;;;13.41;60.08
71791;BME280;59638;52.126;5.434;2023-04-02T12:05:38;102601.31;;;13.19;58.42
71791;BME280;59638;52.126;5.434;2023-04-02T12:08:20;102601.09;;;12.98;59.10
71791;BME280;59638;52.126;5.434;2023-04-02T12:10:56;102608.75;;;12.77;61.47
71791;BME280;59638;52.126;5.434;2023-04-02T12:16:06;102596.63;;;12.37;58.39
71791;BME280;59638;52.126;5.434;2023-04-02T12:18:34;102609.63;;;12.40;61.86
71791;BME280;59638;52.126;5.434;2023-04-02T12:21:01;102621.00;;;12.55;59.93
71791;BME280;59638;52.126;5.434;2023-04-02T12:23:32;102619.19;;;12.30;58.87
71791;BME280;59638;52.126;5.434;2023-04-02T12:26:03;102626.16;;;12.05;60.58
71791;BME280;59638;52.126;5.434;2023-04-02T12:28:31;102632.00;;;12.61;60.58
71791;BME280;59638;52.126;5.434;2023-04-02T12:31:11;102628.94;;;12.55;62.21
71791;BME280;59638;52.126;5.434;2023-04-02T12:33:39;102637.19;;;12.24;60.73
71791;BME280;59638;52.126;5.434;2023-04-02T12:38:45;102637.34;;;11.01;63.29
71791;BME280;59638;52.126;5.434;2023-04-02T12:41:20;102645.00;;;10.48;65.39
71791;BME280;59638;52.126;5.434;2023-04-02T12:43:59;102635.75;;;10.27;67.48
71791;BME280;59638;52.126;5.434;2023-04-02T12:46:27;102645.28;;;10.14;68.71
71791;BME280;59638;52.126;5.434;2023-04-02T12:49:22;102635.31;;;10.19;68.52
71791;BME280;59638;52.126;5.434;2023-04-02T12:51:46;102651.78;;;10.08;70.94
71791;BME280;59638;52.126;5.434;2023-04-02T12:54:15;102633.97;;;9.97;66.14
71791;BME280;59638;52.126;5.434;2023-04-02T12:56:47;102653.59;;;9.62;64.23
71791;BME280;59638;52.126;5.434;2023-04-02T12:59:43;102664.31;;;9.27;67.04
71791;BME280;59638;52.126;5.434;2023-04-02T13:02:19;102661.09;;;9.06;68.82
71791;BME280;59638;52.126;5.434;2023-04-02T13:04:51;102653.59;;;9.30;69.08
71791;BME280;59638;52.126;5.434;2023-04-02T13:07:20;102644.50;;;9.51;68.66
71791;BME280;59638;52.126;5.434;2023-04-02T13:09:52;102649.69;;;9.37;68.90
71791;BME280;59638;52.126;5.434;2023-04-02T13:14:57;102653.44;;;9.65;68.39
71791;BME280;59638;52.126;5.434;2023-04-02T13:22:57;102656.25;;;9.46;70.91
71791;BME280;59638;52.126;5.434;2023-04-02T13:25:29;102665.41;;;9.54;67.18
71791;BME280;59638;52.126;5.434;2023-04-02T13:27:56;102658.53;;;9.52;67.67
71791;BME280;59638;52.126;5.434;2023-04-02T13:30:25;102667.19;;;9.70;69.54
71791;BME280;59638;52.126;5.434;2023-04-02T13:32:53;102658.34;;;9.71;65.69
71791;BME280;59638;52.126;5.434;2023-04-02T13:35:20;102664.66;;;9.52;63.70
71791;BME280;59638;52.126;5.434;2023-04-02T13:37:47;102663.28;;;9.14;65.77
71791;BME280;59638;52.126;5.434;2023-04-02T13:40:15;102665.25;;;9.26;65.36
71791;BME280;59638;52.126;5.434;2023-04-02T13:42:42;102670.78;;;9.37;62.69
71791;BME280;59638;52.126;5.434;2023-04-02T13:45:20;102667.03;;;9.41;65.98
71791;BME280;59638;52.126;5.434;2023-04-02T13:47:47;102656.00;;;9.35;66.52
71791;BME280;59638;52.126;5.434;2023-04-02T13:50:21;102674.53;;;9.65;66.91
71791;BME280;59638;52.126;5.434;2023-04-02T13:52:52;102672.88;;;9.78;66.72
71791;BME280;59638;52.126;5.434;2023-04-02T13:55:22;102677.44;;;9.44;61.29
71791;BME280;59638;52.126;5.434;2023-04-02T13:57:49;102672.50;;;9.38;62.85
71791;BME280;59638;52.126;5.434;2023-04-02T14:00:16;102685.50;;;9.25;62.88
71791;BME280;59638;52.126;5.434;2023-04-02T14:02:46;102675.47;;;9.48;64.11
71791;BME280;59638;52.126;5.434;2023-04-02T14:10:56;102690.50;;;9.30;67.50
71791;BME280;59638;52.126;5.434;2023-04-02T14:29:34;102704.53;;;9.46;66.19
71791;BME280;59638;52.126;5.434;2023-04-02T14:34:50;102698.66;;;9.73;66.86
71791;BME280;59638;52.126;5.434;2023-04-02T14:43:20;102708.47;;;9.71;68.29
71791;BME280;59638;52.126;5.434;2023-04-02T14:45:55;102712.44;;;9.62;65.66
71791;BME280;59638;52.126;5.434;2023-04-02T14:48:29;102713.63;;;9.57;67.14
71791;BME280;59638;52.126;5.434;2023-04-02T14:51:03;102714.91;;;9.65;65.04
71791;BME280;59638;52.126;5.434;2023-04-02T14:53:36;102718.06;;;9.72;66.49
71791;BME280;59638;52.126;5.434;2023-04-02T14:56:09;102724.19;;;9.72;65.57
71791;BME280;59638;52.126;5.434;2023-04-02T14:58:41;102725.19;;;9.70;63.45
71791;BME280;59638;52.126;5.434;2023-04-02T15:01:26;102719.59;;;9.60;67.77
71791;BME280;59638;52.126;5.434;2023-04-02T15:04:00;102718.56;;;9.63;65.82
71791;BME280;59638;52.126;5.434;2023-04-02T15:06:37;102716.63;;;9.66;66.00
71791;BME280;59638;52.126;5.434;2023-04-02T15:09:14;102721.03;;;9.66;63.88
71791;BME280;59638;52.126;5.434;2023-04-02T15:11:47;102729.28;;;9.60;62.12
71791;BME280;59638;52.126;5.434;2023-04-02T15:14:16;102733.81;;;9.58;65.14
71791;BME280;59638;52.126;5.434;2023-04-02T15:16:45;102734.38;;;9.63;65.24
71791;BME280;59638;52.126;5.434;2023-04-02T15:19:15;102744.16;;;9.61;64.14
71791;BME280;59638;52.126;5.434;2023-04-02T15:24:57;102746.72;;;9.46;63.46
71791;BME280;59638;52.126;5.434;2023-04-02T15:27:34;102748.00;;;9.39;63.96
71791;BME280;59638;52.126;5.434;2023-04-02T15:30:36;102752.75;;;9.48;66.61
71791;BME280;59638;52.126;5.434;2023-04-02T15:38:36;102743.72;;;9.37;62.77
71791;BME280;59638;52.126;5.434;2023-04-02T15:41:20;102751.56;;;9.38;66.27
71791;BME280;59638;52.126;5.434;2023-04-02T15:44:08;102753.75;;;9.30;64.37
71791;BME280;59638;52.126;5.434;2023-04-02T15:49:41;102750.69;;;9.22;67.01
71791;BME280;59638;52.126;5.434;2023-04-02T15:55:09;102751.81;;;9.34;63.18
71791;BME280;59638;52.126;5.434;2023-04-02T16:00:54;102756.13;;;9.35;66.13
71791;BME280;59638;52.126;5.434;2023-04-02T16:06:19;102752.53;;;9.20;65.63
71791;BME280;59638;52.126;5.434;2023-04-02T16:11:44;102753.50;;;9.19;66.28